createdAt,value
2018-08-13T00:00:46.553Z,2.40
2018-08-13T00:03:18.073Z,2.43
2018-08-13T00:05:49.000Z,2.60
2018-08-13T00:08:20.658Z,2.47
2018-08-13T00:10:50.505Z,2.60
2018-08-13T00:13:21.400Z,2.40
2018-08-13T00:15:51.268Z,2.47
2018-08-13T00:18:24.148Z,3.00
2018-08-13T00:20:55.696Z,2.90
2018-08-13T00:23:31.589Z,2.53
2018-08-13T00:26:02.788Z,2.60
2018-08-13T00:28:35.101Z,2.47
2018-08-13T00:31:05.792Z,2.50
2018-08-13T00:33:40.460Z,2.30
2018-08-13T00:36:15.969Z,3.10
2018-08-13T00:38:56.129Z,2.63
2018-08-13T00:41:26.180Z,2.37
2018-08-13T00:44:03.227Z,2.73
2018-08-13T00:46:34.049Z,2.73
2018-08-13T00:49:10.164Z,2.50
2018-08-13T00:51:54.360Z,3.03
2018-08-13T00:54:24.997Z,2.73
2018-08-13T00:56:54.913Z,2.67
2018-08-13T00:59:30.380Z,2.40
2018-08-13T01:02:00.268Z,2.73
2018-08-13T01:04:31.584Z,2.80
2018-08-13T01:07:02.040Z,2.87
2018-08-13T01:09:36.264Z,2.60
2018-08-13T01:12:07.132Z,2.50
2018-08-13T01:14:39.097Z,3.17
2018-08-13T01:17:09.508Z,2.87
2018-08-13T01:19:43.944Z,2.90
2018-08-13T01:22:13.661Z,2.77
2018-08-13T01:24:54.292Z,3.30
2018-08-13T01:27:39.353Z,2.90
2018-08-13T01:30:12.261Z,3.10
2018-08-13T01:32:42.295Z,3.10
2018-08-13T01:35:16.000Z,3.57
2018-08-13T01:37:46.030Z,3.20
2018-08-13T01:40:16.029Z,3.20
2018-08-13T01:42:51.185Z,3.03
2018-08-13T01:45:22.305Z,3.03
2018-08-13T01:47:55.128Z,2.67
2018-08-13T01:50:26.328Z,3.50
2018-08-13T01:52:56.554Z,3.50
2018-08-13T01:55:29.108Z,3.50
2018-08-13T01:57:58.928Z,3.20
2018-08-13T02:00:36.708Z,3.13
2018-08-13T02:03:07.340Z,3.43
2018-08-13T02:05:37.569Z,3.40
2018-08-13T02:08:16.304Z,3.47
2018-08-13T02:10:48.564Z,4.57
2018-08-13T02:13:22.756Z,4.00
2018-08-13T02:16:07.832Z,3.63
2018-08-13T02:18:37.747Z,3.60
2018-08-13T02:21:07.860Z,3.87
2018-08-13T02:23:38.840Z,3.83
2018-08-13T02:26:08.708Z,3.60
2018-08-13T02:28:38.556Z,4.70
2018-08-13T02:31:09.210Z,3.80
2018-08-13T02:33:42.361Z,3.87
2018-08-13T02:36:24.352Z,4.37
2018-08-13T02:38:54.262Z,4.00
2018-08-13T02:41:27.660Z,4.47
2018-08-13T02:43:57.693Z,4.50
2018-08-13T02:46:27.727Z,4.20
2018-08-13T02:48:58.808Z,4.83
2018-08-13T02:51:33.884Z,4.63
2018-08-13T02:54:04.924Z,4.47
2018-08-13T02:56:34.952Z,4.50
2018-08-13T02:59:04.929Z,5.20
2018-08-13T03:01:35.512Z,4.67
2018-08-13T03:04:08.951Z,4.10
2018-08-13T03:06:38.872Z,5.43
2018-08-13T03:09:11.482Z,5.00
2018-08-13T03:11:48.488Z,4.80
2018-08-13T03:14:20.505Z,4.67
2018-08-13T03:16:50.996Z,4.97
2018-08-13T03:19:24.722Z,4.20
2018-08-13T03:21:54.764Z,4.03
2018-08-13T03:24:24.736Z,4.50
2018-08-13T03:27:00.363Z,3.67
2018-08-13T03:29:35.556Z,4.17
2018-08-13T03:32:06.172Z,3.83
2018-08-13T03:34:38.024Z,4.67
2018-08-13T03:37:09.947Z,4.17
2018-08-13T03:39:48.274Z,4.63
2018-08-13T03:42:27.527Z,4.37
2018-08-13T03:44:59.443Z,4.43
2018-08-13T03:47:31.472Z,4.57
2018-08-13T03:50:01.737Z,4.90
2018-08-13T03:52:35.864Z,5.17
2018-08-13T03:55:10.388Z,4.90
2018-08-13T03:57:43.043Z,5.60
2018-08-13T04:00:15.884Z,4.60
2018-08-13T04:02:49.312Z,4.77
2018-08-13T04:05:31.077Z,5.83
2018-08-13T04:08:01.573Z,5.00
2018-08-13T04:10:33.216Z,5.40
2018-08-13T04:13:03.049Z,4.80
2018-08-13T04:15:34.749Z,4.70
2018-08-13T04:18:11.511Z,4.70
2018-08-13T04:20:42.424Z,4.93
2018-08-13T04:23:11.985Z,5.20
2018-08-13T04:25:49.974Z,4.83
2018-08-13T04:28:20.881Z,5.50
2018-08-13T04:30:50.752Z,5.50
2018-08-13T04:33:21.620Z,4.70
2018-08-13T04:35:52.468Z,5.40
2018-08-13T04:38:22.368Z,5.33
2018-08-13T04:40:53.008Z,4.97
2018-08-13T04:43:22.804Z,4.90
2018-08-13T04:45:59.055Z,5.20
2018-08-13T04:48:29.884Z,4.80
2018-08-13T04:51:05.520Z,5.00
2018-08-13T04:53:36.380Z,4.63
2018-08-13T04:56:06.212Z,4.50
2018-08-13T04:58:39.084Z,5.97
2018-08-13T05:01:12.561Z,5.40
2018-08-13T05:03:44.468Z,4.90
2018-08-13T05:06:17.532Z,4.80
2018-08-13T05:09:01.032Z,4.97
2018-08-13T05:11:32.928Z,4.40
2018-08-13T05:14:06.640Z,4.77
2018-08-13T05:16:36.548Z,4.03
2018-08-13T05:19:07.372Z,4.80
2018-08-13T05:21:38.004Z,4.13
2018-08-13T05:24:10.780Z,4.47
2018-08-13T05:26:46.128Z,4.57
2018-08-13T05:29:20.451Z,4.00
2018-08-13T05:32:01.729Z,3.97
2018-08-13T05:34:31.560Z,3.47
2018-08-13T05:37:01.428Z,3.63
2018-08-13T05:39:34.111Z,3.33
2018-08-13T05:42:05.892Z,4.00
2018-08-13T05:44:39.787Z,4.33
2018-08-13T05:47:11.556Z,4.30
2018-08-13T05:49:42.392Z,3.70
2018-08-13T05:52:15.248Z,4.20
2018-08-13T05:54:46.036Z,4.07
2018-08-13T05:57:20.928Z,4.77
2018-08-13T05:59:50.780Z,4.47
2018-08-13T06:02:20.636Z,4.10
2018-08-13T06:04:50.475Z,3.73
2018-08-13T06:07:31.885Z,3.97
2018-08-13T06:10:02.744Z,3.87
2018-08-13T06:12:32.520Z,3.33
2018-08-13T06:15:06.212Z,3.83
2018-08-13T06:17:37.292Z,3.63
2018-08-13T06:20:08.484Z,3.47
2018-08-13T06:22:41.352Z,4.13
2018-08-13T06:25:11.464Z,3.70
2018-08-13T06:27:41.231Z,3.43
2018-08-13T06:30:16.177Z,3.80
2018-08-13T06:32:46.758Z,3.53
2018-08-13T06:35:17.520Z,3.43
2018-08-13T06:37:49.136Z,3.40
2018-08-13T06:40:18.683Z,3.03
2018-08-13T06:42:49.160Z,3.23
2018-08-13T06:45:25.552Z,3.20
2018-08-13T06:47:55.404Z,3.30
2018-08-13T06:50:25.089Z,4.40
2018-08-13T06:52:56.813Z,3.10
2018-08-13T06:55:39.464Z,3.23
2018-08-13T06:58:09.032Z,3.27
2018-08-13T07:00:44.999Z,3.13
2018-08-13T07:03:19.318Z,3.20
2018-08-13T07:05:50.028Z,3.77
2018-08-13T07:08:23.428Z,2.40
2018-08-13T07:11:15.728Z,3.10
2018-08-13T07:14:02.211Z,2.37
2018-08-13T07:16:37.747Z,3.10
2018-08-13T07:19:07.524Z,2.83
2018-08-13T07:24:34.692Z,2.73
2018-08-13T07:27:10.998Z,2.90
2018-08-13T07:29:52.991Z,2.87
2018-08-13T07:32:34.987Z,2.77
2018-08-13T07:35:11.408Z,2.67
2018-08-13T07:38:05.860Z,3.60
2018-08-13T07:40:56.276Z,2.70
2018-08-13T07:43:45.124Z,2.40
2018-08-13T07:46:18.888Z,2.60
2018-08-13T07:49:06.219Z,2.73
2018-08-13T07:51:38.063Z,2.60
2018-08-13T07:54:09.919Z,2.67
2018-08-13T08:00:00.173Z,2.47
2018-08-13T08:02:31.875Z,2.20
2018-08-13T08:05:10.029Z,2.03
2018-08-13T08:07:39.895Z,2.70
2018-08-13T08:10:14.075Z,2.43
2018-08-13T08:12:47.511Z,2.57
2018-08-13T08:15:20.868Z,2.33
2018-08-13T08:18:01.915Z,2.60
2018-08-13T08:20:37.424Z,2.60
2018-08-13T08:23:12.287Z,2.10
2018-08-13T08:25:59.604Z,2.63
2018-08-13T08:28:31.323Z,2.00
2018-08-13T08:31:02.160Z,2.20
2018-08-13T08:33:34.040Z,2.03
2018-08-13T08:36:10.711Z,2.17
2018-08-13T08:39:05.360Z,2.33
2018-08-13T08:41:45.508Z,2.20
2018-08-13T08:44:34.983Z,2.00
2018-08-13T08:47:11.728Z,2.20
2018-08-13T08:49:41.631Z,2.13
2018-08-13T08:52:11.215Z,1.97
2018-08-13T08:54:41.943Z,2.17
2018-08-13T08:57:11.539Z,2.20
2018-08-13T08:59:45.243Z,2.30
2018-08-13T09:02:16.810Z,2.80
2018-08-13T09:04:46.536Z,2.40
2018-08-13T09:07:16.356Z,2.07
2018-08-13T09:09:53.535Z,1.90
2018-08-13T09:12:30.444Z,2.93
2018-08-13T09:15:07.701Z,1.97
2018-08-13T09:17:56.300Z,1.73
2018-08-13T09:20:45.243Z,2.70
2018-08-13T09:23:27.184Z,1.90
2018-08-13T09:26:13.940Z,1.67
2018-08-13T09:29:08.648Z,1.83
2018-08-13T09:32:34.895Z,1.50
2018-08-13T09:35:16.991Z,1.80
2018-08-13T09:37:54.176Z,1.37
2018-08-13T09:40:36.978Z,1.70
2018-08-13T09:43:10.718Z,1.73
2018-08-13T09:45:42.464Z,1.70
2018-08-13T09:48:19.523Z,1.40
2018-08-13T09:50:51.024Z,1.50
2018-08-13T09:53:27.000Z,1.70
2018-08-13T09:56:07.459Z,1.57
2018-08-13T09:58:48.740Z,1.60
2018-08-13T10:01:29.869Z,1.53
2018-08-13T10:04:11.211Z,1.63
2018-08-13T10:07:06.044Z,1.57
2018-08-13T10:09:55.272Z,1.50
2018-08-13T10:12:34.708Z,1.77
2018-08-13T10:15:07.863Z,1.33
2018-08-13T10:17:41.375Z,1.87
2018-08-13T10:20:17.917Z,1.43
2018-08-13T10:22:49.623Z,1.87
2018-08-13T10:25:36.911Z,1.63
2018-08-13T10:28:12.259Z,2.03
2018-08-13T10:30:54.104Z,2.87
2018-08-13T10:33:24.907Z,2.00
2018-08-13T10:35:56.559Z,1.80
2018-08-13T10:38:37.748Z,1.90
2018-08-13T10:41:07.647Z,1.90
2018-08-13T10:43:56.584Z,2.43
2018-08-13T10:46:28.107Z,2.13
2018-08-13T10:49:10.651Z,1.93
2018-08-13T10:51:53.525Z,2.00
2018-08-13T10:54:24.327Z,2.30
2018-08-13T10:56:58.231Z,2.03
2018-08-13T10:59:36.069Z,1.90
2018-08-13T11:02:05.971Z,2.30
2018-08-13T11:04:36.779Z,2.30
2018-08-13T11:07:10.494Z,2.20
2018-08-13T11:09:41.355Z,2.53
2018-08-13T11:12:13.167Z,2.30
2018-08-13T11:14:51.027Z,2.43
2018-08-13T11:20:20.120Z,2.27
2018-08-13T11:22:49.989Z,2.37
2018-08-13T11:25:26.480Z,2.40
2018-08-13T11:28:02.771Z,2.03
2018-08-13T11:30:36.120Z,2.20
2018-08-13T11:33:10.607Z,2.93
2018-08-13T11:35:42.447Z,2.47
2018-08-13T11:38:14.279Z,2.30
2018-08-13T11:40:53.895Z,2.40
2018-08-13T11:43:29.071Z,2.57
2018-08-13T11:45:58.711Z,1.87
2018-08-13T11:48:30.834Z,2.33
2018-08-13T11:50:59.822Z,2.70
2018-08-13T11:53:29.031Z,1.50
2018-08-13T11:55:58.607Z,1.80
2018-08-13T11:58:36.567Z,2.10
2018-08-13T12:01:14.392Z,2.00
2018-08-13T12:03:55.451Z,1.50
2018-08-13T12:06:26.247Z,1.83
2018-08-13T12:08:59.611Z,1.50
2018-08-13T12:11:29.420Z,1.80
2018-08-13T12:14:04.762Z,1.50
2018-08-13T12:16:36.811Z,1.77
2018-08-13T12:19:07.691Z,1.80
2018-08-13T12:21:37.484Z,1.90
2018-08-13T12:24:08.336Z,2.10
2018-08-13T12:26:37.935Z,2.00
2018-08-13T12:29:08.541Z,2.03
2018-08-13T12:31:56.664Z,1.90
2018-08-13T12:34:26.524Z,2.00
2018-08-13T12:37:01.559Z,3.23
2018-08-13T12:39:38.125Z,2.03
2018-08-13T12:42:15.463Z,2.10
2018-08-13T12:44:45.271Z,1.87
2018-08-13T12:47:17.095Z,2.30
2018-08-13T12:49:46.680Z,2.20
2018-08-13T12:52:16.226Z,2.03
2018-08-13T12:54:46.948Z,2.20
2018-08-13T12:57:17.800Z,2.87
2018-08-13T12:59:52.807Z,2.10
2018-08-13T13:02:23.543Z,2.50
2018-08-13T13:04:53.355Z,2.53
2018-08-13T13:07:23.142Z,2.30
2018-08-13T13:09:55.017Z,2.70
2018-08-13T13:12:25.839Z,2.40
2018-08-13T13:15:02.968Z,2.47
2018-08-13T13:17:33.771Z,1.87
2018-08-13T13:20:04.175Z,2.40
2018-08-13T13:22:39.271Z,2.50
2018-08-13T13:25:13.267Z,2.30
2018-08-13T13:27:43.159Z,2.30
2018-08-13T13:30:14.491Z,2.10
2018-08-13T13:32:44.506Z,1.97
2018-08-13T13:35:19.640Z,2.30
2018-08-13T13:38:01.355Z,2.90
2018-08-13T13:40:32.350Z,2.23
2018-08-13T13:43:12.947Z,2.40
2018-08-13T13:45:48.727Z,2.07
2018-08-13T13:48:18.270Z,2.73
2018-08-13T13:51:14.263Z,2.20
2018-08-13T13:53:45.994Z,2.60
2018-08-13T13:56:15.795Z,2.20
2018-08-13T13:58:45.635Z,2.20
2018-08-13T14:01:15.548Z,2.63
2018-08-13T14:03:55.371Z,2.93
2018-08-13T14:06:36.447Z,2.37
2018-08-13T14:09:12.396Z,2.70
2018-08-13T14:11:47.750Z,2.10
2018-08-13T14:14:18.039Z,2.20
2018-08-13T14:16:48.807Z,2.40
2018-08-13T14:19:18.387Z,2.67
2018-08-13T14:21:52.232Z,2.23
2018-08-13T14:24:26.486Z,1.87
2018-08-13T14:26:57.242Z,2.27
2018-08-13T14:29:31.882Z,2.10
2018-08-13T14:32:07.063Z,2.40
2018-08-13T14:34:56.643Z,2.57
2018-08-13T14:37:26.215Z,2.83
2018-08-13T14:39:56.721Z,2.40
2018-08-13T14:42:26.137Z,2.23
2018-08-13T14:44:59.627Z,2.20
2018-08-13T14:47:29.444Z,2.33
2018-08-13T14:49:59.542Z,2.10
2018-08-13T14:52:34.766Z,2.50
2018-08-13T14:55:06.091Z,2.10
2018-08-13T14:57:43.787Z,2.10
2018-08-13T15:00:30.359Z,2.33
2018-08-13T15:03:00.878Z,2.50
2018-08-13T15:05:36.510Z,2.33
2018-08-13T15:08:08.305Z,2.13
2018-08-13T15:10:38.106Z,2.10
2018-08-13T15:13:11.919Z,2.47
2018-08-13T15:15:51.259Z,1.90
2018-08-13T15:18:26.097Z,2.43
2018-08-13T15:20:55.635Z,2.33
2018-08-13T15:23:27.011Z,1.80
2018-08-13T15:26:06.167Z,2.10
2018-08-13T15:28:35.975Z,2.50
2018-08-13T15:31:06.799Z,2.73
2018-08-13T15:33:37.543Z,2.73
2018-08-13T15:36:10.808Z,2.70
2018-08-13T15:41:45.142Z,2.97
2018-08-13T15:44:24.895Z,2.33
2018-08-13T15:46:55.718Z,2.70
2018-08-13T15:49:36.319Z,2.10
2018-08-13T15:52:17.323Z,1.83
2018-08-13T15:54:53.567Z,2.30
2018-08-13T15:57:23.337Z,2.27
2018-08-13T15:59:53.191Z,2.10
2018-08-13T16:02:22.972Z,2.07
2018-08-13T16:05:05.963Z,2.23
2018-08-13T16:07:40.343Z,2.10
2018-08-13T16:10:16.661Z,1.77
2018-08-13T16:12:55.066Z,1.60
2018-08-13T16:15:44.763Z,2.87
2018-08-13T16:18:16.530Z,2.53
2018-08-13T16:20:51.530Z,2.00
2018-08-13T16:23:22.280Z,2.00
2018-08-13T16:25:53.130Z,7.47
2018-08-13T16:28:26.218Z,1.97
2018-08-13T16:31:03.226Z,3.90
2018-08-13T16:33:39.175Z,3.43
2018-08-13T16:36:10.011Z,3.33
2018-08-13T16:38:46.994Z,5.03
2018-08-13T16:41:17.814Z,7.70
2018-08-13T16:43:48.426Z,11.37
2018-08-13T16:46:18.163Z,3.50
2018-08-13T16:48:47.946Z,9.73
2018-08-13T16:51:17.582Z,6.70
2018-08-13T16:54:02.159Z,5.00
2018-08-13T16:56:44.759Z,8.77
2018-08-13T16:59:15.505Z,12.53
2018-08-13T17:01:45.606Z,3.90
2018-08-13T17:04:20.514Z,3.30
2018-08-13T17:06:55.907Z,4.97
2018-08-13T17:09:26.806Z,3.87
2018-08-13T17:11:56.663Z,2.90
2018-08-13T17:14:36.308Z,3.87
2018-08-13T17:17:17.990Z,2.40
2018-08-13T17:19:47.702Z,2.40
2018-08-13T17:22:18.198Z,2.73
2018-08-13T17:24:48.172Z,2.77
2018-08-13T17:27:18.967Z,2.60
2018-08-13T17:29:54.698Z,2.80
2018-08-13T17:32:26.527Z,2.50
2018-08-13T17:34:58.434Z,2.67
2018-08-13T17:37:40.618Z,2.70
2018-08-13T17:40:16.254Z,2.73
2018-08-13T17:42:51.870Z,3.03
2018-08-13T17:45:22.528Z,3.40
2018-08-13T17:47:53.358Z,2.10
2018-08-13T17:50:26.403Z,3.40
2018-08-13T17:53:13.456Z,2.93
2018-08-13T17:55:46.218Z,2.90
2018-08-13T17:58:18.071Z,3.40
2018-08-13T18:00:47.938Z,3.20
2018-08-13T18:03:18.583Z,3.27
2018-08-13T18:05:49.714Z,3.20
2018-08-13T18:08:19.298Z,3.90
2018-08-13T18:10:51.439Z,3.37
2018-08-13T18:13:23.327Z,4.37
2018-08-13T18:15:53.199Z,3.63
2018-08-13T18:18:23.091Z,3.90
2018-08-13T18:20:52.914Z,4.60
2018-08-13T18:23:22.502Z,4.40
2018-08-13T18:25:52.290Z,4.00
2018-08-13T18:28:28.686Z,4.70
2018-08-13T18:31:03.666Z,4.60
2018-08-13T18:33:39.079Z,5.17
2018-08-13T18:36:09.862Z,4.47
2018-08-13T18:38:39.706Z,4.70
2018-08-13T18:41:10.523Z,5.57
2018-08-13T18:43:41.201Z,5.53
2018-08-13T18:46:14.158Z,7.07
2018-08-13T18:48:45.822Z,5.73
2018-08-13T18:51:16.554Z,5.90
2018-08-13T18:53:46.463Z,5.30
2018-08-13T18:56:16.263Z,6.40
2018-08-13T18:58:47.938Z,5.10
2018-08-13T19:01:19.694Z,5.47
2018-08-13T19:03:51.470Z,4.87
2018-08-13T19:06:22.090Z,5.90
2018-08-13T19:08:53.858Z,4.70
2018-08-13T19:11:24.646Z,5.27
2018-08-13T19:13:55.628Z,5.00
2018-08-13T19:16:25.546Z,5.37
2018-08-13T19:18:55.238Z,5.00
2018-08-13T19:21:26.939Z,5.00
2018-08-13T19:23:56.717Z,4.90
2018-08-13T19:26:32.082Z,6.03
2018-08-13T19:29:03.326Z,5.57
2018-08-13T19:31:34.638Z,6.90
2018-08-13T19:34:28.678Z,6.23
2018-08-13T19:36:58.290Z,5.50
2018-08-13T19:39:30.093Z,6.60
2018-08-13T19:42:03.806Z,5.57
2018-08-13T19:44:40.359Z,6.70
2018-08-13T19:47:11.578Z,5.57
2018-08-13T19:50:01.256Z,6.30
2018-08-13T19:52:38.639Z,5.40
2018-08-13T19:55:09.875Z,5.10
2018-08-13T19:57:40.195Z,6.63
2018-08-13T20:00:23.330Z,6.33
2018-08-13T20:02:57.478Z,6.77
2018-08-13T20:05:29.431Z,7.17
2018-08-13T20:08:00.112Z,8.03
2018-08-13T20:10:29.800Z,7.27
2018-08-13T20:13:00.478Z,6.60
2018-08-13T20:15:30.098Z,5.70
2018-08-13T20:17:59.706Z,6.10
2018-08-13T20:20:35.306Z,4.00
2018-08-13T20:23:07.940Z,4.53
2018-08-13T20:25:39.698Z,3.63
2018-08-13T20:28:11.206Z,3.27
2018-08-13T20:30:44.282Z,4.30
2018-08-13T20:33:15.626Z,4.57
2018-08-13T20:35:46.556Z,4.70
2018-08-13T20:38:21.702Z,3.50
2018-08-13T20:40:51.490Z,4.20
2018-08-13T20:43:33.026Z,4.70
2018-08-13T20:46:04.807Z,5.10
2018-08-13T20:48:34.813Z,4.50
2018-08-13T20:51:05.072Z,4.90
2018-08-13T20:53:35.167Z,4.73
2018-08-13T20:56:05.106Z,4.80
2018-08-13T20:58:35.954Z,4.00
2018-08-13T21:01:06.134Z,3.30
2018-08-13T21:03:35.827Z,2.90
2018-08-13T21:06:05.566Z,2.47
2018-08-13T21:08:35.535Z,2.07
2018-08-13T21:11:05.778Z,2.20
2018-08-13T21:13:35.517Z,2.30
2018-08-13T21:16:05.554Z,2.17
2018-08-13T21:18:37.274Z,2.10
2018-08-13T21:21:07.213Z,2.17
2018-08-13T21:23:42.982Z,1.67
2018-08-13T21:26:14.618Z,1.70
2018-08-13T21:28:49.173Z,2.17
2018-08-13T21:31:20.926Z,1.73
2018-08-13T21:33:52.761Z,1.80
2018-08-13T21:36:29.163Z,1.87
2018-08-13T21:39:00.737Z,2.00
2018-08-13T21:41:30.412Z,2.47
2018-08-13T21:44:02.301Z,1.67
2018-08-13T21:46:34.002Z,1.50
2018-08-13T21:49:06.582Z,1.70
2018-08-13T21:51:44.930Z,1.53
2018-08-13T21:54:15.266Z,1.90
2018-08-13T21:56:45.991Z,1.77
2018-08-13T21:59:16.849Z,1.40
2018-08-13T22:01:48.766Z,1.40
2018-08-13T22:04:18.874Z,1.90
2018-08-13T22:06:53.482Z,1.70
2018-08-13T22:09:23.843Z,2.20
2018-08-13T22:11:56.782Z,2.03
2018-08-13T22:14:31.390Z,2.70
2018-08-13T22:17:02.490Z,2.67
2018-08-13T22:19:36.022Z,2.33
2018-08-13T22:22:11.093Z,2.27
2018-08-13T22:24:53.821Z,3.20
2018-08-13T22:27:25.405Z,2.70
2018-08-13T22:29:55.281Z,2.43
2018-08-13T22:32:30.178Z,3.30
2018-08-13T22:35:01.184Z,2.70
2018-08-13T22:37:30.941Z,3.20
2018-08-13T22:40:12.150Z,2.50
2018-08-13T22:42:45.461Z,2.40
2018-08-13T22:45:18.928Z,3.60
2018-08-13T22:47:53.598Z,3.17
2018-08-13T22:50:24.289Z,2.73
2018-08-13T22:53:01.216Z,3.10
2018-08-13T22:55:33.174Z,2.97
2018-08-13T22:58:07.757Z,2.93
2018-08-13T23:00:45.276Z,3.40
2018-08-13T23:03:28.001Z,3.07
2018-08-13T23:06:00.558Z,3.80
2018-08-13T23:08:31.573Z,3.43
2018-08-13T23:11:02.869Z,3.10
2018-08-13T23:13:34.491Z,3.70
2018-08-13T23:16:05.389Z,3.40
2018-08-13T23:18:40.241Z,3.67
2018-08-13T23:21:13.037Z,3.80
2018-08-13T23:23:45.142Z,3.80
2018-08-13T23:26:17.893Z,3.77
2018-08-13T23:28:47.809Z,4.53
2018-08-13T23:31:33.766Z,4.57
2018-08-13T23:34:05.870Z,4.37
2018-08-13T23:36:40.337Z,4.57
2018-08-13T23:39:13.221Z,4.13
2018-08-13T23:41:44.497Z,3.43
2018-08-13T23:44:15.604Z,3.63
2018-08-13T23:46:47.021Z,3.53
2018-08-13T23:49:23.357Z,4.00
2018-08-13T23:51:57.989Z,4.17
2018-08-13T23:54:37.999Z,2.73
2018-08-13T23:57:21.033Z,4.20
2018-08-13T23:59:52.306Z,3.83
